Time;durP1;ratioP1;P1;durP2;ratioP2;P2;SDS_P1;SDS_P2;PMS_P1;PMS_P2;Temp;Humidity;BMP_temperature;BMP_pressure;BME280_temperature;BME280_humidity;BME280_pressure;Samples;Min_cycle;Max_cycle;Signal;HPM_P1;HPM_P2
2022/03/01 00:00:41;;;;;;;18.00;9.50;;;;;;;;;;4971750;28;20046;-72
2022/03/01 00:03:08;;;;;;;18.73;9.88;;;;;;;;;;4985597;28;20057;-71
2022/03/01 00:05:34;;;;;;;17.60;8.43;;;;;;;;;;4985783;28;20464;-71
2022/03/01 00:08:01;;;;;;;15.23;8.27;;;;;;;;;;4977000;28;20050;-71
2022/03/01 00:10:27;;;;;;;15.02;9.45;;;;;;;;;;4979592;28;20109;-71
2022/03/01 00:12:53;;;;;;;15.93;9.38;;;;;;;;;;4966285;28;20459;-71
2022/03/01 00:15:20;;;;;;;18.33;9.52;;;;;;;;;;4984919;28;20053;-72
2022/03/01 00:17:46;;;;;;;15.35;9.23;;;;;;;;;;4981417;28;20435;-71
2022/03/01 00:20:12;;;;;;;14.07;8.93;;;;;;;;;;4984404;28;20046;-71
2022/03/01 00:22:39;;;;;;;15.77;8.68;;;;;;;;;;4984260;28;20050;-71
2022/03/01 00:25:06;;;;;;;16.33;9.57;;;;;;;;;;4966769;28;20050;-71
2022/03/01 00:27:33;;;;;;;20.27;9.77;;;;;;;;;;4981101;28;20735;-70
2022/03/01 00:29:59;;;;;;;16.90;9.27;;;;;;;;;;4981264;28;20136;-71
2022/03/01 00:32:25;;;;;;;20.58;9.05;;;;;;;;;;4984628;28;20053;-70
2022/03/01 00:34:52;;;;;;;17.70;9.27;;;;;;;;;;4979364;28;20058;-71
2022/03/01 00:37:18;;;;;;;16.10;8.93;;;;;;;;;;4980953;28;20053;-70
2022/03/01 00:39:44;;;;;;;14.95;8.60;;;;;;;;;;4980484;28;20567;-71
2022/03/01 00:42:10;;;;;;;17.30;9.05;;;;;;;;;;4978376;28;20491;-70
2022/03/01 00:44:39;;;;;;;15.07;8.05;;;;;;;;;;4985576;28;20096;-70
2022/03/01 00:47:05;;;;;;;16.63;9.65;;;;;;;;;;4979630;28;20090;-71
2022/03/01 00:49:31;;;;;;;17.05;8.52;;;;;;;;;;4985619;28;20046;-71
2022/03/01 00:51:58;;;;;;;15.52;9.18;;;;;;;;;;4974929;28;20046;-71
2022/03/01 00:54:24;;;;;;;15.02;8.38;;;;;;;;;;4980592;28;20061;-70
2022/03/01 00:56:50;;;;;;;17.30;9.45;;;;;;;;;;4987619;28;20053;-70
2022/03/01 00:59:17;;;;;;;16.38;8.93;;;;;;;;;;4981059;28;20049;-70
2022/03/01 01:01:43;;;;;;;15.55;8.57;;;;;;;;;;4986806;28;20054;-70
2022/03/01 01:04:09;;;;;;;18.23;9.13;;;;;;;;;;4980930;28;20081;-70
2022/03/01 01:06:36;;;;;;;13.40;8.32;;;;;;;;;;4975175;28;20047;-70
2022/03/01 01:09:03;;;;;;;17.38;9.18;;;;;;;;;;4979379;28;20058;-71
2022/03/01 01:11:29;;;;;;;16.52;8.65;;;;;;;;;;4981165;28;20049;-70
2022/03/01 01:13:55;;;;;;;15.52;9.68;;;;;;;;;;4989350;28;20046;-70
2022/03/01 01:16:21;;;;;;;19.38;9.68;;;;;;;;;;4980793;28;20038;-71
2022/03/01 01:18:48;;;;;;;15.05;9.23;;;;;;;;;;4985831;28;20050;-71
2022/03/01 01:21:14;;;;;;;18.98;9.65;;;;;;;;;;4972772;28;20057;-70
2022/03/01 01:23:43;;;;;;;19.10;8.73;;;;;;;;;;4985842;28;20046;-70
2022/03/01 01:26:12;;;;;;;14.10;8.63;;;;;;;;;;4979884;28;20061;-70
2022/03/01 01:28:39;;;;;;;16.75;9.18;;;;;;;;;;4999714;28;20050;-70
2022/03/01 01:31:05;;;;;;;15.90;8.60;;;;;;;;;;4986216;28;20050;-70
2022/03/01 01:33:31;;;;;;;17.10;8.98;;;;;;;;;;4975155;28;20046;-71
2022/03/01 01:35:58;;;;;;;16.95;9.30;;;;;;;;;;4982767;28;20052;-70
2022/03/01 01:38:24;;;;;;;13.93;8.07;;;;;;;;;;4979266;28;20042;-70
2022/03/01 01:40:51;;;;;;;16.65;10.18;;;;;;;;;;4987771;28;20058;-71
2022/03/01 01:43:17;;;;;;;17.15;9.77;;;;;;;;;;4985945;28;20097;-70
2022/03/01 01:45:43;;;;;;;18.98;10.00;;;;;;;;;;4978574;28;20054;-70
2022/03/01 01:48:10;;;;;;;17.08;9.32;;;;;;;;;;4986796;28;20050;-70
2022/03/01 01:50:36;;;;;;;19.27;10.27;;;;;;;;;;4978831;28;20069;-70
2022/03/01 01:53:03;;;;;;;16.98;10.02;;;;;;;;;;4987944;28;20057;-70
2022/03/01 01:55:29;;;;;;;16.77;9.25;;;;;;;;;;4984159;28;20058;-70
2022/03/01 01:57:57;;;;;;;16.92;9.20;;;;;;;;;;4989900;28;20065;-70
2022/03/01 02:00:23;;;;;;;16.80;9.00;;;;;;;;;;4990688;28;20082;-70
2022/03/01 02:02:51;;;;;;;14.88;9.40;;;;;;;;;;4978015;28;20042;-70
2022/03/01 02:05:17;;;;;;;16.38;8.88;;;;;;;;;;4986309;28;20038;-70
2022/03/01 02:07:45;;;;;;;17.88;9.70;;;;;;;;;;4983623;28;20053;-70
2022/03/01 02:10:11;;;;;;;18.00;9.00;;;;;;;;;;4989357;28;20069;-71
2022/03/01 02:12:38;;;;;;;18.25;9.60;;;;;;;;;;4984047;28;20315;-71
2022/03/01 02:15:04;;;;;;;19.95;9.50;;;;;;;;;;4989492;28;20069;-70
2022/03/01 02:17:31;;;;;;;19.73;9.93;;;;;;;;;;4981112;28;20048;-70
2022/03/01 02:19:57;;;;;;;16.13;9.75;;;;;;;;;;4978902;28;20070;-70
2022/03/01 02:22:31;;;;;;;20.55;9.55;;;;;;;;;;4987014;28;20054;-70
2022/03/01 02:24:57;;;;;;;17.23;9.25;;;;;;;;;;4981906;28;20425;-70
2022/03/01 02:27:23;;;;;;;15.98;9.95;;;;;;;;;;4990080;28;20046;-70
2022/03/01 02:29:49;;;;;;;15.23;9.05;;;;;;;;;;4977926;28;20526;-71
2022/03/01 02:32:16;;;;;;;16.65;9.05;;;;;;;;;;4984396;28;20050;-70
2022/03/01 02:34:42;;;;;;;16.20;8.65;;;;;;;;;;4989170;28;20610;-70
2022/03/01 02:37:08;;;;;;;16.58;9.07;;;;;;;;;;4983473;28;20046;-71
2022/03/01 02:39:35;;;;;;;19.55;10.02;;;;;;;;;;4990126;28;20496;-71
2022/03/01 02:42:01;;;;;;;17.15;9.70;;;;;;;;;;4982908;28;20050;-71
2022/03/01 02:44:27;;;;;;;17.85;9.80;;;;;;;;;;4984896;28;20042;-70
2022/03/01 02:46:54;;;;;;;18.05;10.68;;;;;;;;;;4972525;28;20047;-70
2022/03/01 02:49:23;;;;;;;15.98;9.48;;;;;;;;;;4990109;28;20444;-70
2022/03/01 02:51:49;;;;;;;19.15;10.05;;;;;;;;;;4988806;28;20158;-70
2022/03/01 02:54:16;;;;;;;18.02;10.10;;;;;;;;;;4981424;28;20046;-70
2022/03/01 02:56:43;;;;;;;17.05;9.88;;;;;;;;;;4988502;28;20061;-70
2022/03/01 02:59:09;;;;;;;18.77;10.35;;;;;;;;;;4975608;28;20059;-70
2022/03/01 03:01:38;;;;;;;18.90;9.85;;;;;;;;;;4985901;28;20151;-70
2022/03/01 03:04:05;;;;;;;15.18;8.90;;;;;;;;;;4985128;28;20157;-71
2022/03/01 03:06:31;;;;;;;18.42;9.68;;;;;;;;;;4988157;28;20057;-70
2022/03/01 03:08:57;;;;;;;19.98;10.48;;;;;;;;;;4986934;28;20073;-71
2022/03/01 03:11:23;;;;;;;18.45;10.65;;;;;;;;;;4976994;28;20599;-71
2022/03/01 03:13:50;;;;;;;15.85;9.10;;;;;;;;;;4982045;28;20046;-71
2022/03/01 03:16:16;;;;;;;19.63;10.18;;;;;;;;;;4983150;28;20042;-71
2022/03/01 03:18:44;;;;;;;16.00;8.95;;;;;;;;;;4989209;28;20041;-71
2022/03/01 03:21:10;;;;;;;17.67;10.20;;;;;;;;;;4987786;28;20419;-71
2022/03/01 03:23:37;;;;;;;17.73;9.88;;;;;;;;;;4985211;28;20053;-71
2022/03/01 03:26:03;;;;;;;16.80;9.35;;;;;;;;;;4982140;28;20046;-71
2022/03/01 03:28:29;;;;;;;19.50;10.07;;;;;;;;;;4976766;28;20419;-70
2022/03/01 03:30:56;;;;;;;17.27;9.73;;;;;;;;;;4989478;28;20042;-70
2022/03/01 03:33:22;;;;;;;18.65;11.02;;;;;;;;;;4976639;28;20050;-71
2022/03/01 03:35:49;;;;;;;20.95;10.23;;;;;;;;;;4989328;28;20057;-71
2022/03/01 03:38:16;;;;;;;16.38;10.02;;;;;;;;;;4988977;28;20139;-71
2022/03/01 03:40:42;;;;;;;19.20;10.10;;;;;;;;;;4989570;28;20046;-70
2022/03/01 03:43:09;;;;;;;19.02;10.18;;;;;;;;;;4985625;28;20042;-70
2022/03/01 03:45:35;;;;;;;19.38;10.75;;;;;;;;;;4980692;28;20053;-72
2022/03/01 03:48:02;;;;;;;18.08;9.98;;;;;;;;;;4988397;28;20050;-70
2022/03/01 03:50:29;;;;;;;17.58;9.82;;;;;;;;;;4974222;28;20042;-70
2022/03/01 03:52:55;;;;;;;18.25;9.73;;;;;;;;;;4983331;28;20046;-70
2022/03/01 03:55:21;;;;;;;17.85;10.00;;;;;;;;;;4981393;28;20042;-71
2022/03/01 03:57:48;;;;;;;19.15;10.30;;;;;;;;;;4982270;28;20058;-71
2022/03/01 04:00:16;;;;;;;19.10;10.82;;;;;;;;;;4988215;28;20640;-70
2022/03/01 04:02:43;;;;;;;;;;;;;;;;;;4983364;28;20047;-70
2022/03/01 04:05:09;;;;;;;24.55;10.57;;;;;;;;;;4986998;28;19976;-70
2022/03/01 04:07:36;;;;;;;21.80;10.88;;;;;;;;;;4978773;28;20540;-70
2022/03/01 04:10:03;;;;;;;19.60;10.70;;;;;;;;;;4983442;28;20724;-69
2022/03/01 04:12:29;;;;;;;15.07;9.55;;;;;;;;;;4988559;28;20054;-69
2022/03/01 04:14:55;;;;;;;16.70;9.75;;;;;;;;;;4982249;28;20046;-70
2022/03/01 04:17:22;;;;;;;20.27;10.55;;;;;;;;;;4988786;28;20069;-70
2022/03/01 04:19:48;;;;;;;17.88;10.48;;;;;;;;;;4980980;28;20423;-70
2022/03/01 04:22:14;;;;;;;16.95;11.15;;;;;;;;;;4984902;28;20480;-69
2022/03/01 04:24:41;;;;;;;17.58;10.30;;;;;;;;;;4976294;28;20046;-69
2022/03/01 04:27:07;;;;;;;18.08;10.18;;;;;;;;;;4986324;28;20060;-70
2022/03/01 04:29:34;;;;;;;16.98;9.45;;;;;;;;;;4989548;28;20042;-70
2022/03/01 04:32:01;;;;;;;16.42;9.85;;;;;;;;;;4981480;28;20045;-70
2022/03/01 04:34:28;;;;;;;18.30;10.00;;;;;;;;;;4984174;28;20046;-70
2022/03/01 04:36:54;;;;;;;18.75;9.90;;;;;;;;;;4975699;28;20525;-69
2022/03/01 04:39:20;;;;;;;15.57;9.93;;;;;;;;;;4986531;28;20085;-69
2022/03/01 04:41:48;;;;;;;19.40;10.35;;;;;;;;;;4982161;28;20042;-70
2022/03/01 04:44:14;;;;;;;18.60;10.05;;;;;;;;;;4987290;28;20061;-69
2022/03/01 04:46:42;;;;;;;18.20;10.57;;;;;;;;;;4987554;28;20587;-69
2022/03/01 04:49:09;;;;;;;18.15;9.82;;;;;;;;;;4975815;28;20546;-69
2022/03/01 04:51:36;;;;;;;17.08;10.63;;;;;;;;;;4983465;28;20059;-69
2022/03/01 04:54:02;;;;;;;18.27;10.35;;;;;;;;;;4979714;28;20046;-69
2022/03/01 04:56:28;;;;;;;20.15;10.23;;;;;;;;;;4987812;28;20400;-69
2022/03/01 04:58:55;;;;;;;21.55;10.27;;;;;;;;;;4978438;28;20133;-70
2022/03/01 05:01:21;;;;;;;16.77;10.80;;;;;;;;;;4987645;28;20065;-70
2022/03/01 05:03:48;;;;;;;17.05;10.25;;;;;;;;;;4982685;28;20050;-70
2022/03/01 05:06:15;;;;;;;15.38;9.23;;;;;;;;;;4976321;28;20069;-70
2022/03/01 05:08:41;;;;;;;18.08;10.68;;;;;;;;;;4985693;28;20522;-70
2022/03/01 05:11:07;;;;;;;18.33;10.23;;;;;;;;;;4979054;28;20050;-70
2022/03/01 05:13:34;;;;;;;19.63;10.68;;;;;;;;;;4987906;28;20054;-70
2022/03/01 05:16:00;;;;;;;18.52;9.93;;;;;;;;;;4980173;28;20046;-70
2022/03/01 05:18:26;;;;;;;21.50;10.30;;;;;;;;;;4975231;28;20081;-69
2022/03/01 05:20:53;;;;;;;17.60;9.95;;;;;;;;;;4977718;28;20062;-69
2022/03/01 05:23:19;;;;;;;18.05;9.95;;;;;;;;;;4983148;28;20049;-70
2022/03/01 05:25:45;;;;;;;19.50;10.63;;;;;;;;;;4986264;28;20042;-69
2022/03/01 05:28:12;;;;;;;18.17;10.27;;;;;;;;;;4979819;28;20053;-69
2022/03/01 05:30:38;;;;;;;16.75;9.55;;;;;;;;;;4986704;28;20467;-69
2022/03/01 05:33:04;;;;;;;21.83;11.43;;;;;;;;;;4973760;28;20256;-69
2022/03/01 05:35:31;;;;;;;20.65;10.00;;;;;;;;;;4982108;28;20061;-69
2022/03/01 05:37:58;;;;;;;21.15;10.65;;;;;;;;;;4984225;28;20050;-69
2022/03/01 05:40:25;;;;;;;21.63;10.38;;;;;;;;;;4981437;28;20054;-69
2022/03/01 05:42:52;;;;;;;15.65;9.93;;;;;;;;;;4986873;28;20057;-69
2022/03/01 05:45:20;;;;;;;20.30;10.90;;;;;;;;;;4976072;28;20487;-69
2022/03/01 05:47:47;;;;;;;23.15;11.75;;;;;;;;;;4980322;28;20145;-70
2022/03/01 05:50:14;;;;;;;21.42;10.27;;;;;;;;;;4981479;28;20057;-70
2022/03/01 05:52:45;;;;;;;18.95;11.05;;;;;;;;;;4984866;28;20057;-70
2022/03/01 05:55:11;;;;;;;18.77;10.52;;;;;;;;;;4979534;28;20046;-70
2022/03/01 05:57:38;;;;;;;20.95;10.98;;;;;;;;;;4980393;28;20047;-70
2022/03/01 06:00:08;;;;;;;18.60;11.38;;;;;;;;;;4978769;28;20047;-70
2022/03/01 06:02:35;;;;;;;19.45;11.10;;;;;;;;;;4984602;28;20049;-70
2022/03/01 06:05:03;;;;;;;20.67;11.82;;;;;;;;;;4983731;28;20116;-70
2022/03/01 06:07:29;;;;;;;20.15;10.63;;;;;;;;;;4973793;28;20038;-70
2022/03/01 06:09:55;;;;;;;21.83;12.02;;;;;;;;;;4985047;28;20046;-69
2022/03/01 06:12:21;;;;;;;20.10;11.55;;;;;;;;;;4976967;28;20557;-70
2022/03/01 06:14:48;;;;;;;20.88;11.93;;;;;;;;;;4975583;28;20062;-70
2022/03/01 06:17:14;;;;;;;22.80;11.80;;;;;;;;;;4976320;28;20061;-70
2022/03/01 06:19:40;;;;;;;24.27;12.75;;;;;;;;;;4975960;28;20413;-69
2022/03/01 06:22:07;;;;;;;21.92;11.50;;;;;;;;;;4976764;28;20094;-70
2022/03/01 06:24:38;;;;;;;23.05;11.40;;;;;;;;;;4993464;28;20276;-69
2022/03/01 06:27:05;;;;;;;18.48;10.88;;;;;;;;;;4984200;28;20054;-69
2022/03/01 06:29:32;;;;;;;18.30;11.07;;;;;;;;;;4987737;28;20046;-70
2022/03/01 06:31:58;;;;;;;19.80;12.07;;;;;;;;;;4979989;28;20046;-70
2022/03/01 06:34:24;;;;;;;20.33;11.15;;;;;;;;;;4989636;28;20046;-70
2022/03/01 06:36:50;;;;;;;17.48;10.80;;;;;;;;;;4977848;28;20097;-70
2022/03/01 06:39:18;;;;;;;20.17;10.40;;;;;;;;;;4982871;28;20057;-70
2022/03/01 06:41:45;;;;;;;20.73;11.35;;;;;;;;;;4979702;28;20049;-71
2022/03/01 06:44:12;;;;;;;21.73;11.47;;;;;;;;;;4985179;28;20043;-70
2022/03/01 06:46:39;;;;;;;24.05;12.70;;;;;;;;;;4985106;28;20511;-69
2022/03/01 06:49:06;;;;;;;30.75;15.88;;;;;;;;;;4983676;28;20078;-71
2022/03/01 06:51:32;;;;;;;28.05;13.48;;;;;;;;;;4985321;28;20044;-71
2022/03/01 06:53:58;;;;;;;24.40;12.95;;;;;;;;;;4979261;28;20447;-70
2022/03/01 06:56:25;;;;;;;18.90;11.35;;;;;;;;;;4990814;28;20047;-70
2022/03/01 06:58:51;;;;;;;21.13;11.75;;;;;;;;;;4982725;28;20046;-70
2022/03/01 07:01:17;;;;;;;22.77;11.50;;;;;;;;;;4989082;28;20054;-70
2022/03/01 07:03:44;;;;;;;23.33;11.90;;;;;;;;;;4984701;28;20049;-70
2022/03/01 07:06:11;;;;;;;19.80;11.55;;;;;;;;;;4978280;28;20050;-70
2022/03/01 07:08:37;;;;;;;22.15;11.82;;;;;;;;;;4990191;28;20057;-70
2022/03/01 07:11:04;;;;;;;24.45;11.50;;;;;;;;;;4981861;28;20594;-70
2022/03/01 07:13:30;;;;;;;22.70;11.48;;;;;;;;;;4990497;28;20039;-71
2022/03/01 07:15:56;;;;;;;17.85;10.93;;;;;;;;;;4986589;28;20043;-71
2022/03/01 07:18:23;;;;;;;19.42;11.13;;;;;;;;;;4982418;28;20121;-71
2022/03/01 07:20:49;;;;;;;27.20;12.10;;;;;;;;;;4983318;28;20491;-72
2022/03/01 07:23:16;;;;;;;18.60;11.35;;;;;;;;;;4982737;28;20081;-71
2022/03/01 07:25:42;;;;;;;24.33;12.32;;;;;;;;;;4987804;28;20042;-72
2022/03/01 07:28:08;;;;;;;25.15;13.07;;;;;;;;;;4981198;28;20050;-71
2022/03/01 07:30:36;;;;;;;19.55;11.65;;;;;;;;;;4987636;28;20050;-71
2022/03/01 07:33:02;;;;;;;21.75;12.27;;;;;;;;;;4981016;28;20058;-71
2022/03/01 07:35:29;;;;;;;23.27;12.13;;;;;;;;;;4981347;28;20054;-71
2022/03/01 07:37:56;;;;;;;22.38;12.15;;;;;;;;;;4988374;28;20042;-70
2022/03/01 07:40:22;;;;;;;18.90;11.13;;;;;;;;;;4980350;28;20051;-70
2022/03/01 07:42:49;;;;;;;23.30;11.98;;;;;;;;;;4985376;28;20415;-70
2022/03/01 07:45:16;;;;;;;19.67;11.45;;;;;;;;;;4976448;28;20049;-71
2022/03/01 07:47:43;;;;;;;21.20;12.13;;;;;;;;;;4982327;28;20042;-70
2022/03/01 07:50:09;;;;;;;20.10;11.75;;;;;;;;;;4986203;28;20546;-70
2022/03/01 07:52:36;;;;;;;20.20;11.23;;;;;;;;;;4980117;28;20073;-71
2022/03/01 07:55:03;;;;;;;21.05;12.48;;;;;;;;;;4986795;28;20054;-70
2022/03/01 07:57:29;;;;;;;22.33;11.40;;;;;;;;;;4997085;28;20057;-71
2022/03/01 07:59:55;;;;;;;20.42;11.93;;;;;;;;;;4983446;28;20050;-70
2022/03/01 08:02:22;;;;;;;20.13;11.57;;;;;;;;;;4973914;28;20054;-71
2022/03/01 08:04:51;;;;;;;20.02;11.68;;;;;;;;;;4981431;28;20125;-71
2022/03/01 08:07:37;;;;;;;19.65;12.13;;;;;;;;;;4990303;28;20050;-71
2022/03/01 08:10:04;;;;;;;18.73;10.95;;;;;;;;;;4983841;28;20042;-70
2022/03/01 08:12:30;;;;;;;17.65;10.80;;;;;;;;;;4988974;28;20042;-70
2022/03/01 08:14:56;;;;;;;17.15;10.50;;;;;;;;;;4974243;28;20515;-70
2022/03/01 08:17:23;;;;;;;17.90;10.18;;;;;;;;;;4987346;28;20046;-70
2022/03/01 08:19:49;;;;;;;20.63;11.55;;;;;;;;;;4981148;28;20396;-70
2022/03/01 08:22:15;;;;;;;20.05;11.35;;;;;;;;;;4986864;28;20046;-70
2022/03/01 08:24:42;;;;;;;20.02;11.60;;;;;;;;;;4987832;28;20388;-70
2022/03/01 08:27:08;;;;;;;19.02;11.32;;;;;;;;;;4975361;28;20125;-70
2022/03/01 08:29:35;;;;;;;19.40;11.95;;;;;;;;;;4981300;28;20059;-70
2022/03/01 08:32:01;;;;;;;18.92;11.15;;;;;;;;;;4977624;28;20058;-70
2022/03/01 08:34:27;;;;;;;18.33;11.38;;;;;;;;;;4986261;28;20042;-70
2022/03/01 08:36:56;;;;;;;17.95;10.90;;;;;;;;;;4979369;28;20527;-70
2022/03/01 08:39:23;;;;;;;16.75;10.25;;;;;;;;;;4982550;28;20072;-70
2022/03/01 08:41:53;;;;;;;19.10;9.90;;;;;;;;;;4978483;28;20042;-70
2022/03/01 08:44:20;;;;;;;18.48;10.70;;;;;;;;;;4985053;28;20291;-70
2022/03/01 08:46:49;;;;;;;14.15;9.35;;;;;;;;;;4986600;28;20049;-71
2022/03/01 08:49:16;;;;;;;16.92;10.52;;;;;;;;;;4979333;28;20038;-71
2022/03/01 08:51:42;;;;;;;16.60;9.95;;;;;;;;;;4991946;28;20049;-71
2022/03/01 08:54:08;;;;;;;15.00;10.05;;;;;;;;;;4974665;28;20056;-70
2022/03/01 08:56:35;;;;;;;19.30;9.63;;;;;;;;;;4977566;28;20046;-70
2022/03/01 08:59:01;;;;;;;17.10;9.32;;;;;;;;;;4979167;28;20064;-70
2022/03/01 09:01:27;;;;;;;17.13;10.27;;;;;;;;;;4984150;28;20046;-71
2022/03/01 09:03:54;;;;;;;19.95;11.35;;;;;;;;;;4985932;28;20061;-71
2022/03/01 09:06:23;;;;;;;16.40;10.68;;;;;;;;;;4977859;28;20269;-71
2022/03/01 09:08:49;;;;;;;16.27;9.90;;;;;;;;;;4982591;28;20046;-71
2022/03/01 09:11:16;;;;;;;12.48;8.57;;;;;;;;;;4972084;28;20053;-71
2022/03/01 09:13:42;;;;;;;15.82;10.13;;;;;;;;;;4980555;28;20047;-71
2022/03/01 09:16:09;;;;;;;17.15;10.40;;;;;;;;;;4979832;28;20050;-70
2022/03/01 09:18:36;;;;;;;16.30;9.75;;;;;;;;;;4986321;28;20108;-71
2022/03/01 09:21:04;;;;;;;16.25;9.43;;;;;;;;;;4985760;28;20057;-72
2022/03/01 09:23:30;;;;;;;16.83;10.30;;;;;;;;;;4975070;28;20460;-72
2022/03/01 09:25:56;;;;;;;14.55;9.27;;;;;;;;;;4981165;28;20419;-70
2022/03/01 09:28:23;;;;;;;15.85;10.15;;;;;;;;;;4978993;28;20050;-70
2022/03/01 09:30:49;;;;;;;21.38;10.40;;;;;;;;;;4985101;28;20043;-71
2022/03/01 09:33:16;;;;;;;16.20;9.40;;;;;;;;;;4977566;28;20101;-71
2022/03/01 09:35:42;;;;;;;15.88;9.88;;;;;;;;;;4991044;28;20057;-71
2022/03/01 09:38:09;;;;;;;15.98;10.38;;;;;;;;;;4976839;28;20046;-71
2022/03/01 09:40:37;;;;;;;;;;;;;;;;;;4980957;28;20514;-71
2022/03/01 09:43:04;;;;;;;18.48;9.00;;;;;;;;;;4985339;28;20377;-70
2022/03/01 09:45:32;;;;;;;17.27;9.57;;;;;;;;;;4979477;28;20046;-71
2022/03/01 09:47:58;;;;;;;17.73;9.40;;;;;;;;;;4986666;28;20564;-71
2022/03/01 09:50:27;;;;;;;16.98;10.48;;;;;;;;;;4982236;28;20050;-71
2022/03/01 09:52:55;;;;;;;15.77;10.02;;;;;;;;;;4977590;28;20081;-71
2022/03/01 09:55:22;;;;;;;18.70;9.27;;;;;;;;;;4985285;28;20046;-71
2022/03/01 09:57:53;;;;;;;16.50;9.35;;;;;;;;;;4979086;28;20597;-71
2022/03/01 10:00:19;;;;;;;17.33;9.88;;;;;;;;;;4985753;28;20125;-70
2022/03/01 10:02:46;;;;;;;16.05;9.63;;;;;;;;;;4978435;28;20058;-71
2022/03/01 10:05:13;;;;;;;17.45;9.13;;;;;;;;;;4979666;28;20508;-71
2022/03/01 10:07:44;;;;;;;17.33;10.43;;;;;;;;;;4978269;28;20045;-70
2022/03/01 10:10:16;;;;;;;16.13;9.77;;;;;;;;;;4992402;28;20136;-70
2022/03/01 10:12:44;;;;;;;14.68;8.20;;;;;;;;;;4990326;28;20163;-70
2022/03/01 10:15:13;;;;;;;17.02;9.73;;;;;;;;;;4983316;28;20053;-70
2022/03/01 10:17:41;;;;;;;15.48;9.13;;;;;;;;;;4989468;28;20106;-70
2022/03/01 10:20:09;;;;;;;15.07;9.15;;;;;;;;;;4975294;28;20042;-70
2022/03/01 10:22:42;;;;;;;14.47;9.33;;;;;;;;;;4988438;28;20060;-70
2022/03/01 10:25:08;;;;;;;17.25;10.00;;;;;;;;;;4982255;28;20323;-70
2022/03/01 10:27:35;;;;;;;16.27;10.00;;;;;;;;;;4986990;28;20042;-70
2022/03/01 10:30:04;;;;;;;15.85;9.75;;;;;;;;;;4989603;28;20360;-69
2022/03/01 10:32:30;;;;;;;17.02;10.50;;;;;;;;;;4976666;28;20046;-70
2022/03/01 10:34:57;;;;;;;15.77;9.30;;;;;;;;;;4982882;28;20101;-70
2022/03/01 10:37:24;;;;;;;14.40;9.15;;;;;;;;;;4981930;28;20057;-70
2022/03/01 10:39:51;;;;;;;16.55;10.40;;;;;;;;;;4990435;28;20058;-70
2022/03/01 10:42:25;;;;;;;17.85;10.13;;;;;;;;;;4980666;28;20047;-70
2022/03/01 10:44:56;;;;;;;14.68;10.13;;;;;;;;;;4985789;28;20057;-70
2022/03/01 10:47:23;;;;;;;15.55;9.77;;;;;;;;;;4984338;28;20511;-70
2022/03/01 10:49:59;;;;;;;18.08;9.82;;;;;;;;;;4977749;28;20137;-70
2022/03/01 10:52:31;;;;;;;15.95;10.48;;;;;;;;;;4989417;28;20065;-70
2022/03/01 10:54:57;;;;;;;18.00;10.75;;;;;;;;;;4981488;28;20058;-70
2022/03/01 10:57:24;;;;;;;17.83;9.90;;;;;;;;;;4989033;28;20062;-70
2022/03/01 10:59:51;;;;;;;17.15;10.57;;;;;;;;;;4976863;28;20137;-70
2022/03/01 11:02:18;;;;;;;17.13;10.45;;;;;;;;;;4983381;28;20050;-70
2022/03/01 11:04:47;;;;;;;15.18;9.32;;;;;;;;;;4991075;28;20495;-70
2022/03/01 11:07:14;;;;;;;15.93;9.75;;;;;;;;;;4980628;28;20250;-70
2022/03/01 11:09:43;;;;;;;18.30;10.05;;;;;;;;;;4982154;28;20042;-69
2022/03/01 11:12:09;;;;;;;16.27;9.93;;;;;;;;;;4982308;28;20038;-70
2022/03/01 11:14:56;;;;;;;16.75;9.18;;;;;;;;;;4983562;28;20054;-70
2022/03/01 11:17:41;;;;;;;14.73;9.63;;;;;;;;;;4980125;28;20617;-70
2022/03/01 11:20:35;;;;;;;16.10;10.15;;;;;;;;;;4985884;28;20038;-70
2022/03/01 11:23:06;;;;;;;17.80;10.88;;;;;;;;;;4975376;28;20054;-69
2022/03/01 11:25:37;;;;;;;15.98;10.30;;;;;;;;;;4988081;28;20046;-69
2022/03/01 11:28:09;;;;;;;15.60;9.45;;;;;;;;;;4974506;28;20484;-70
2022/03/01 11:30:37;;;;;;;18.02;10.73;;;;;;;;;;4983438;28;20109;-69
2022/03/01 11:33:03;;;;;;;17.45;10.10;;;;;;;;;;4987450;28;20050;-70
2022/03/01 11:35:32;;;;;;;16.73;10.65;;;;;;;;;;4982062;28;20065;-70
2022/03/01 11:37:58;;;;;;;16.90;10.75;;;;;;;;;;4986276;28;20057;-70
2022/03/01 11:40:25;;;;;;;16.10;10.32;;;;;;;;;;4983614;28;20047;-70
2022/03/01 11:42:53;;;;;;;14.73;9.80;;;;;;;;;;4979301;28;20046;-69
2022/03/01 11:45:20;;;;;;;16.13;10.18;;;;;;;;;;4980674;28;20046;-70
2022/03/01 11:47:46;;;;;;;15.48;10.70;;;;;;;;;;4986313;28;20050;-70
2022/03/01 11:50:17;;;;;;;19.77;9.98;;;;;;;;;;4989112;28;20042;-69
2022/03/01 11:52:58;;;;;;;13.33;9.20;;;;;;;;;;4977288;28;20058;-69
2022/03/01 11:55:31;;;;;;;16.90;10.30;;;;;;;;;;4982505;28;20296;-70
2022/03/01 11:57:58;;;;;;;16.40;10.32;;;;;;;;;;4977159;28;20060;-70
2022/03/01 12:00:27;;;;;;;16.80;10.27;;;;;;;;;;4987157;28;20356;-69
2022/03/01 12:02:57;;;;;;;14.65;10.02;;;;;;;;;;4980376;28;20726;-70
2022/03/01 12:05:24;;;;;;;19.15;10.55;;;;;;;;;;4988700;28;20046;-70
2022/03/01 12:07:52;;;;;;;16.35;10.07;;;;;;;;;;4987932;28;20081;-70
2022/03/01 12:10:49;;;;;;;19.35;11.43;;;;;;;;;;4981599;28;20057;-70
2022/03/01 12:13:16;;;;;;;18.40;10.48;;;;;;;;;;4987511;28;20054;-71
2022/03/01 12:15:44;;;;;;;18.05;10.50;;;;;;;;;;4982406;28;20085;-70
2022/03/01 12:18:11;;;;;;;;;;;;;;;;;;4988368;28;20566;-69
2022/03/01 12:20:38;;;;;;;19.67;10.30;;;;;;;;;;4979529;28;19930;-70
2022/03/01 12:23:06;;;;;;;19.40;10.55;;;;;;;;;;4986464;28;20062;-69
2022/03/01 12:25:33;;;;;;;17.17;10.38;;;;;;;;;;4981030;28;20046;-69
2022/03/01 12:28:00;;;;;;;18.25;10.68;;;;;;;;;;4987974;28;20054;-70
2022/03/01 12:30:28;;;;;;;19.08;11.05;;;;;;;;;;4986262;28;20081;-70
2022/03/01 12:32:55;;;;;;;15.63;10.45;;;;;;;;;;4976051;28;20133;-71
2022/03/01 12:35:23;;;;;;;22.50;10.55;;;;;;;;;;4981888;28;20046;-71
2022/03/01 12:37:50;;;;;;;16.05;10.75;;;;;;;;;;4980598;28;20054;-71
2022/03/01 12:40:27;;;;;;;15.43;10.25;;;;;;;;;;4987628;28;20483;-70
2022/03/01 12:43:05;;;;;;;18.00;10.88;;;;;;;;;;4977561;28;20043;-70
2022/03/01 12:45:32;;;;;;;;;;;;;;;;;;4987955;28;20042;-71
2022/03/01 12:48:04;;;;;;;16.65;10.68;;;;;;;;;;4978566;28;20012;-70
2022/03/01 12:50:31;;;;;;;18.00;11.70;;;;;;;;;;4981467;28;20136;-71
2022/03/01 12:52:58;;;;;;;22.10;10.93;;;;;;;;;;4985355;28;20054;-70
2022/03/01 12:55:25;;;;;;;16.83;10.77;;;;;;;;;;4978354;28;20065;-70
2022/03/01 12:57:53;;;;;;;16.13;10.40;;;;;;;;;;4985164;28;20050;-70
2022/03/01 13:00:20;;;;;;;16.15;11.38;;;;;;;;;;4975480;28;20101;-70
2022/03/01 13:03:05;;;;;;;29.92;12.38;;;;;;;;;;4983367;28;20132;-71
2022/03/01 13:05:32;;;;;;;19.00;11.32;;;;;;;;;;4977898;28;20307;-70
2022/03/01 13:07:59;;;;;;;24.02;11.38;;;;;;;;;;4985552;28;20055;-70
2022/03/01 13:10:27;;;;;;;18.92;10.23;;;;;;;;;;4986898;28;20791;-70
2022/03/01 13:12:53;;;;;;;16.95;10.57;;;;;;;;;;4981104;28;20053;-70
2022/03/01 13:15:24;;;;;;;17.65;10.95;;;;;;;;;;4977475;28;20049;-70
2022/03/01 13:17:51;;;;;;;17.38;11.40;;;;;;;;;;4980554;28;20054;-69
2022/03/01 13:20:18;;;;;;;19.30;11.68;;;;;;;;;;4984440;28;20050;-70
2022/03/01 13:22:45;;;;;;;19.73;10.43;;;;;;;;;;4977640;28;20046;-70
2022/03/01 13:25:11;;;;;;;19.08;11.43;;;;;;;;;;4985171;28;20039;-70
2022/03/01 13:27:46;;;;;;;16.60;11.07;;;;;;;;;;4981549;28;20042;-70
2022/03/01 13:30:12;;;;;;;16.45;10.35;;;;;;;;;;4975547;28;20078;-70
2022/03/01 13:32:39;;;;;;;19.42;10.85;;;;;;;;;;4985762;28;20053;-70
2022/03/01 13:35:06;;;;;;;16.35;9.85;;;;;;;;;;4978804;28;20059;-70
2022/03/01 13:37:36;;;;;;;18.05;11.10;;;;;;;;;;4986941;28;20050;-70
2022/03/01 13:40:03;;;;;;;17.80;10.88;;;;;;;;;;4975378;28;20055;-70
2022/03/01 13:42:30;;;;;;;18.27;10.80;;;;;;;;;;4999313;28;20056;-70
2022/03/01 13:44:57;;;;;;;20.92;11.10;;;;;;;;;;4987151;28;20489;-71
2022/03/01 13:47:27;;;;;;;15.85;10.60;;;;;;;;;;4984767;28;20050;-70
2022/03/01 13:49:55;;;;;;;17.08;11.27;;;;;;;;;;4989943;28;20054;-70
2022/03/01 13:52:23;;;;;;;18.00;11.70;;;;;;;;;;4983405;28;20053;-71
2022/03/01 13:55:00;;;;;;;20.10;11.15;;;;;;;;;;4989635;28;20058;-70
2022/03/01 13:57:31;;;;;;;18.23;11.13;;;;;;;;;;4980244;28;20389;-71
2022/03/01 13:59:58;;;;;;;16.52;11.07;;;;;;;;;;4988412;28;20052;-71
2022/03/01 14:02:25;;;;;;;15.10;10.40;;;;;;;;;;4991151;28;20085;-70
2022/03/01 14:04:59;;;;;;;15.18;10.55;;;;;;;;;;4980634;28;20053;-70
2022/03/01 14:07:25;;;;;;;18.30;10.43;;;;;;;;;;4985616;28;20050;-71
2022/03/01 14:09:52;;;;;;;16.45;9.98;;;;;;;;;;4975117;28;20065;-70
2022/03/01 14:12:29;;;;;;;20.55;11.43;;;;;;;;;;4989363;28;20050;-70
2022/03/01 14:15:13;;;;;;;18.50;11.18;;;;;;;;;;4982807;28;20062;-70
2022/03/01 14:17:39;;;;;;;20.17;11.75;;;;;;;;;;4989302;28;20050;-71
2022/03/01 14:20:06;;;;;;;17.98;10.45;;;;;;;;;;4987440;28;20057;-71
2022/03/01 14:22:32;;;;;;;18.73;11.27;;;;;;;;;;4981084;28;20306;-71
2022/03/01 14:24:59;;;;;;;19.30;10.93;;;;;;;;;;4983911;28;20496;-71